createdAt,value
2019-01-24T00:01:12.730Z,39.97
2019-01-24T00:03:41.532Z,39.60
2019-01-24T00:06:10.894Z,38.47
2019-01-24T00:08:40.218Z,41.47
2019-01-24T00:11:09.614Z,38.67
2019-01-24T00:13:38.944Z,38.87
2019-01-24T00:16:08.411Z,38.60
2019-01-24T00:18:37.640Z,39.33
2019-01-24T00:21:06.923Z,37.50
2019-01-24T00:23:36.190Z,34.93
2019-01-24T00:26:05.521Z,35.37
2019-01-24T00:28:34.948Z,34.67
2019-01-24T00:31:04.228Z,36.23
2019-01-24T00:33:33.560Z,35.50
2019-01-24T00:36:02.925Z,36.10
2019-01-24T00:38:32.374Z,36.40
2019-01-24T00:41:01.642Z,37.10
2019-01-24T00:43:30.914Z,35.73
2019-01-24T00:46:00.288Z,37.33
2019-01-24T00:48:30.552Z,35.40
2019-01-24T00:50:59.996Z,35.87
2019-01-24T00:53:29.360Z,35.07
2019-01-24T00:55:58.642Z,35.43
2019-01-24T00:58:27.949Z,31.20
2019-01-24T01:00:57.260Z,30.90
2019-01-24T01:03:26.561Z,32.03
2019-01-24T01:05:55.886Z,29.83
2019-01-24T01:08:25.278Z,30.80
2019-01-24T01:10:54.602Z,28.37
2019-01-24T01:13:23.987Z,28.63
2019-01-24T01:15:53.411Z,28.23
2019-01-24T01:18:22.689Z,29.53
2019-01-24T01:20:51.964Z,27.00
2019-01-24T01:23:21.275Z,26.23
2019-01-24T01:25:50.554Z,25.67
2019-01-24T01:28:19.893Z,25.37
2019-01-24T01:30:49.172Z,27.60
2019-01-24T01:33:18.478Z,25.93
2019-01-24T01:35:47.747Z,25.60
2019-01-24T01:38:17.497Z,23.63
2019-01-24T01:40:46.383Z,22.63
2019-01-24T01:43:15.830Z,22.67
2019-01-24T01:45:45.084Z,21.83
2019-01-24T01:48:14.406Z,20.33
2019-01-24T01:50:43.672Z,21.97
2019-01-24T01:53:13.031Z,23.53
2019-01-24T01:55:42.278Z,21.87
2019-01-24T01:58:11.612Z,22.70
2019-01-24T02:00:40.870Z,21.57
2019-01-24T02:03:10.214Z,21.80
2019-01-24T02:05:39.494Z,21.67
2019-01-24T02:08:11.789Z,22.90
2019-01-24T02:10:41.170Z,22.47
2019-01-24T02:13:10.482Z,21.87
2019-01-24T02:15:39.790Z,21.50
2019-01-24T02:18:09.077Z,21.50
2019-01-24T02:20:38.340Z,20.77
2019-01-24T02:23:07.614Z,23.40
2019-01-24T02:25:37.082Z,21.43
2019-01-24T02:28:06.400Z,22.40
2019-01-24T02:30:38.311Z,21.77
2019-01-24T02:33:07.686Z,20.87
2019-01-24T02:35:36.964Z,21.17
2019-01-24T02:38:06.260Z,20.43
2019-01-24T02:40:35.518Z,21.10
2019-01-24T02:43:04.899Z,21.47
2019-01-24T02:45:34.172Z,22.77
2019-01-24T02:48:03.464Z,21.70
2019-01-24T02:50:32.776Z,22.33
2019-01-24T02:53:02.043Z,20.63
2019-01-24T02:55:32.448Z,20.77
2019-01-24T02:58:01.692Z,20.00
2019-01-24T03:00:31.011Z,21.73
2019-01-24T03:03:00.394Z,21.70
2019-01-24T03:05:29.696Z,21.23
2019-01-24T03:07:58.992Z,20.57
2019-01-24T03:10:28.281Z,21.43
2019-01-24T03:12:57.585Z,20.63
2019-01-24T03:15:26.927Z,21.50
2019-01-24T03:17:56.294Z,22.00
2019-01-24T03:20:25.626Z,21.30
2019-01-24T03:22:54.929Z,21.00
2019-01-24T03:25:24.136Z,21.30
2019-01-24T03:27:53.378Z,21.73
2019-01-24T03:30:22.955Z,22.13
2019-01-24T03:32:52.329Z,21.40
2019-01-24T03:35:26.253Z,22.40
2019-01-24T03:37:55.561Z,22.77
2019-01-24T03:40:25.015Z,19.70
2019-01-24T03:42:54.334Z,20.13
2019-01-24T03:45:23.755Z,19.30
2019-01-24T03:47:53.142Z,19.33
2019-01-24T03:50:22.665Z,19.50
2019-01-24T03:52:52.067Z,18.53
2019-01-24T03:55:22.342Z,19.43
2019-01-24T03:57:51.603Z,18.63
2019-01-24T04:00:23.238Z,19.10
2019-01-24T04:02:52.512Z,20.30
2019-01-24T04:05:21.808Z,19.80
2019-01-24T04:07:51.084Z,21.07
2019-01-24T04:10:21.338Z,18.83
2019-01-24T04:12:50.771Z,20.07
2019-01-24T04:15:24.720Z,19.07
2019-01-24T04:17:54.021Z,21.57
2019-01-24T04:20:23.349Z,21.87
2019-01-24T04:22:52.657Z,18.83
2019-01-24T04:25:21.924Z,20.00
2019-01-24T04:27:51.249Z,20.10
2019-01-24T04:30:22.102Z,19.87
2019-01-24T04:32:51.424Z,19.43
2019-01-24T04:35:21.012Z,19.90
2019-01-24T04:37:50.311Z,22.10
2019-01-24T04:40:20.121Z,21.97
2019-01-24T04:42:49.428Z,21.53
2019-01-24T04:45:18.757Z,19.37
2019-01-24T04:47:48.146Z,21.77
2019-01-24T04:50:18.094Z,19.87
2019-01-24T04:52:47.393Z,20.70
2019-01-24T04:55:18.500Z,21.20
2019-01-24T04:57:47.752Z,21.17
2019-01-24T05:00:27.975Z,21.00
2019-01-24T05:02:57.238Z,20.67
2019-01-24T05:05:28.023Z,20.90
2019-01-24T05:07:55.851Z,21.87
2019-01-24T05:10:25.222Z,26.03
2019-01-24T05:12:54.559Z,25.90
2019-01-24T05:15:23.867Z,24.53
2019-01-24T05:17:53.149Z,22.73
2019-01-24T05:20:22.456Z,20.97
2019-01-24T05:22:51.696Z,21.90
2019-01-24T05:25:20.952Z,21.80
2019-01-24T05:27:50.379Z,22.23
2019-01-24T05:30:27.353Z,23.80
2019-01-24T05:32:56.669Z,28.50
2019-01-24T05:35:26.658Z,23.67
2019-01-24T05:37:55.934Z,21.90
2019-01-24T05:40:25.258Z,22.23
2019-01-24T05:42:54.525Z,21.30
2019-01-24T05:45:24.060Z,22.17
2019-01-24T05:47:53.387Z,23.27
2019-01-24T05:50:22.674Z,25.93
2019-01-24T05:52:52.086Z,22.83
2019-01-24T05:55:21.386Z,21.57
2019-01-24T05:57:50.850Z,20.40
2019-01-24T06:00:38.251Z,21.97
2019-01-24T06:03:08.344Z,20.83
2019-01-24T06:05:41.691Z,22.43
2019-01-24T06:08:06.958Z,27.17
2019-01-24T06:10:36.249Z,25.77
2019-01-24T06:13:05.552Z,24.20
2019-01-24T06:15:34.802Z,22.33
2019-01-24T06:18:04.127Z,21.80
2019-01-24T06:20:33.438Z,20.87
2019-01-24T06:23:02.742Z,21.63
2019-01-24T06:25:32.430Z,22.60
2019-01-24T06:28:01.852Z,25.07
2019-01-24T06:30:31.270Z,23.10
2019-01-24T06:33:00.554Z,22.80
2019-01-24T06:35:29.830Z,25.23
2019-01-24T06:37:59.254Z,26.20
2019-01-24T06:40:28.534Z,25.93
2019-01-24T06:42:57.850Z,24.43
2019-01-24T06:45:27.167Z,22.10
2019-01-24T06:47:56.446Z,24.33
2019-01-24T06:50:25.732Z,24.97
2019-01-24T06:52:55.072Z,24.53
2019-01-24T06:55:28.797Z,23.30
2019-01-24T06:57:58.055Z,25.37
2019-01-24T07:00:27.378Z,25.47
2019-01-24T07:02:56.653Z,23.67
2019-01-24T07:05:25.985Z,23.17
2019-01-24T07:07:55.237Z,24.47
2019-01-24T07:10:24.780Z,24.50
2019-01-24T07:12:54.093Z,23.73
2019-01-24T07:15:23.512Z,24.30
2019-01-24T07:17:52.784Z,24.97
2019-01-24T07:20:22.074Z,22.43
2019-01-24T07:22:51.386Z,24.43
2019-01-24T07:25:22.733Z,23.80
2019-01-24T07:27:52.050Z,22.97
2019-01-24T07:30:21.539Z,23.27
2019-01-24T07:32:50.817Z,23.30
2019-01-24T07:35:20.086Z,23.30
2019-01-24T07:37:49.453Z,20.97
2019-01-24T07:40:19.052Z,23.03
2019-01-24T07:42:48.467Z,22.53
2019-01-24T07:45:20.620Z,22.53
2019-01-24T07:47:49.933Z,24.50
2019-01-24T07:50:19.193Z,23.53
2019-01-24T07:52:48.456Z,22.10
2019-01-24T07:55:17.818Z,22.60
2019-01-24T07:57:47.082Z,22.23
2019-01-24T08:00:21.847Z,21.53
2019-01-24T08:02:51.272Z,20.87
2019-01-24T08:05:21.473Z,22.13
2019-01-24T08:07:50.811Z,21.93
2019-01-24T08:10:20.800Z,21.53
2019-01-24T08:12:50.118Z,21.83
2019-01-24T08:15:20.323Z,20.50
2019-01-24T08:17:49.748Z,20.57
2019-01-24T08:20:20.877Z,20.27
2019-01-24T08:22:50.125Z,20.83
2019-01-24T08:25:19.424Z,20.97
2019-01-24T08:27:48.677Z,21.40
2019-01-24T08:30:23.053Z,20.47
2019-01-24T08:32:52.423Z,21.50
2019-01-24T08:35:21.934Z,20.30
2019-01-24T08:37:51.227Z,21.23
2019-01-24T08:40:20.611Z,21.87
2019-01-24T08:42:49.875Z,19.83
2019-01-24T08:45:19.198Z,23.23
2019-01-24T08:47:48.492Z,22.87
2019-01-24T08:50:19.344Z,22.70
2019-01-24T08:52:48.642Z,22.67
2019-01-24T08:55:20.648Z,18.73
2019-01-24T08:57:49.939Z,21.63
2019-01-24T09:00:19.622Z,21.00
2019-01-24T09:02:49.060Z,23.00
2019-01-24T09:05:18.365Z,21.63
2019-01-24T09:07:47.620Z,24.23
2019-01-24T09:10:19.799Z,23.47
2019-01-24T09:12:49.093Z,23.60
2019-01-24T09:15:18.390Z,22.77
2019-01-24T09:17:47.685Z,23.10
2019-01-24T09:20:17.526Z,23.50
2019-01-24T09:22:46.822Z,24.57
2019-01-24T09:25:16.068Z,23.40
2019-01-24T09:27:45.448Z,21.63
2019-01-24T09:30:20.373Z,23.20
2019-01-24T09:32:49.710Z,23.50
2019-01-24T09:35:19.062Z,22.73
2019-01-24T09:37:48.390Z,24.17
2019-01-24T09:40:17.848Z,23.23
2019-01-24T09:42:47.193Z,23.60
2019-01-24T09:45:18.892Z,24.67
2019-01-24T09:47:48.283Z,20.20
2019-01-24T09:50:19.696Z,21.67
2019-01-24T09:52:49.044Z,23.03
2019-01-24T09:55:18.360Z,23.33
2019-01-24T09:57:47.721Z,23.07
2019-01-24T10:00:22.242Z,23.90
2019-01-24T10:02:51.546Z,22.73
2019-01-24T10:05:20.907Z,22.47
2019-01-24T10:07:50.187Z,22.57
2019-01-24T10:10:20.939Z,23.53
2019-01-24T10:12:50.685Z,49.27
2019-01-24T10:15:20.167Z,31.10
2019-01-24T10:17:49.446Z,23.43
2019-01-24T10:20:20.005Z,22.43
2019-01-24T10:22:49.303Z,24.20
2019-01-24T10:25:20.901Z,24.33
2019-01-24T10:27:50.236Z,22.53
2019-01-24T10:30:20.685Z,23.03
2019-01-24T10:32:49.992Z,23.10
2019-01-24T10:35:19.291Z,21.97
2019-01-24T10:37:48.536Z,22.90
2019-01-24T10:40:25.480Z,24.43
2019-01-24T10:42:54.720Z,23.50
2019-01-24T10:45:24.037Z,25.30
2019-01-24T10:47:53.355Z,23.90
2019-01-24T10:50:23.902Z,23.43
2019-01-24T10:52:53.175Z,25.07
2019-01-24T10:55:24.243Z,24.90
2019-01-24T10:57:54.544Z,25.53
2019-01-24T11:00:26.429Z,25.87
2019-01-24T11:02:55.711Z,28.93
2019-01-24T11:05:25.036Z,26.80
2019-01-24T11:07:54.315Z,25.53
2019-01-24T11:10:23.610Z,25.13
2019-01-24T11:12:52.881Z,25.43
2019-01-24T11:15:23.044Z,24.60
2019-01-24T11:17:52.300Z,26.23
2019-01-24T11:20:21.660Z,25.83
2019-01-24T11:22:51.065Z,26.50
2019-01-24T11:25:21.506Z,26.97
2019-01-24T11:27:50.907Z,24.83
2019-01-24T11:30:24.963Z,26.17
2019-01-24T11:32:54.296Z,24.27
2019-01-24T11:35:25.752Z,24.10
2019-01-24T11:37:55.052Z,25.17
2019-01-24T11:40:24.293Z,27.70
2019-01-24T11:42:53.865Z,26.33
2019-01-24T11:45:28.473Z,25.87
2019-01-24T11:47:57.996Z,25.60
2019-01-24T11:50:27.386Z,25.80
2019-01-24T11:52:56.706Z,24.30
2019-01-24T11:55:25.977Z,25.13
2019-01-24T11:57:55.305Z,25.77
2019-01-24T12:00:27.899Z,25.50
2019-01-24T12:02:57.286Z,24.93
2019-01-24T12:05:26.555Z,25.37
2019-01-24T12:07:55.839Z,24.53
2019-01-24T12:10:25.776Z,25.33
2019-01-24T12:12:55.205Z,24.93
2019-01-24T12:15:24.994Z,24.70
2019-01-24T12:17:54.298Z,25.60
2019-01-24T12:20:24.289Z,25.50
2019-01-24T12:22:53.547Z,26.47
2019-01-24T12:25:22.948Z,26.10
2019-01-24T12:27:52.220Z,26.10
2019-01-24T12:30:32.301Z,24.83
2019-01-24T12:33:01.989Z,26.70
2019-01-24T12:35:31.308Z,26.27
2019-01-24T12:38:00.587Z,23.90
2019-01-24T12:40:30.022Z,25.13
2019-01-24T12:42:59.294Z,24.00
2019-01-24T12:45:30.768Z,25.33
2019-01-24T12:48:00.132Z,25.40
2019-01-24T12:50:29.459Z,24.67
2019-01-24T12:52:58.802Z,25.37
2019-01-24T12:55:28.291Z,24.43
2019-01-24T12:57:57.555Z,24.37
2019-01-24T13:00:35.227Z,25.00
2019-01-24T13:03:04.687Z,24.63
2019-01-24T13:05:34.070Z,25.40
2019-01-24T13:08:03.315Z,25.23
2019-01-24T13:10:32.675Z,23.53
2019-01-24T13:13:02.073Z,24.20
2019-01-24T13:15:32.436Z,26.13
2019-01-24T13:18:01.799Z,41.90
2019-01-24T13:20:31.206Z,27.00
2019-01-24T13:23:00.638Z,25.57
2019-01-24T13:25:31.878Z,23.23
2019-01-24T13:28:01.167Z,24.80
2019-01-24T13:30:31.993Z,25.43
2019-01-24T13:33:01.400Z,24.73
2019-01-24T13:35:30.799Z,25.30
2019-01-24T13:38:00.130Z,25.23
2019-01-24T13:40:30.741Z,25.63
2019-01-24T13:43:00.988Z,23.27
2019-01-24T13:45:32.608Z,24.00
2019-01-24T13:48:01.910Z,25.13
2019-01-24T13:50:31.306Z,23.10
2019-01-24T13:53:00.682Z,23.27
2019-01-24T13:55:30.030Z,23.30
2019-01-24T13:57:59.284Z,22.97
2019-01-24T14:00:31.086Z,23.37
2019-01-24T14:03:41.748Z,23.77
2019-01-24T14:06:04.298Z,23.53
2019-01-24T14:08:33.621Z,23.73
2019-01-24T14:11:02.978Z,23.60
2019-01-24T14:13:32.306Z,23.90
2019-01-24T14:16:01.600Z,23.27
2019-01-24T14:18:30.936Z,22.97
2019-01-24T14:21:00.306Z,21.97
2019-01-24T14:23:29.582Z,24.73
2019-01-24T14:25:58.920Z,22.70
2019-01-24T14:28:28.210Z,21.97
2019-01-24T14:30:57.480Z,21.43
2019-01-24T14:33:26.794Z,20.93
2019-01-24T14:35:56.092Z,22.80
2019-01-24T14:38:25.351Z,23.77
2019-01-24T14:40:54.679Z,22.30
2019-01-24T14:43:23.974Z,23.93
2019-01-24T14:45:53.319Z,25.07
2019-01-24T14:48:22.560Z,23.97
2019-01-24T14:50:52.038Z,24.07
2019-01-24T14:53:21.417Z,23.20
2019-01-24T14:55:50.783Z,23.07
2019-01-24T14:58:20.119Z,20.83
2019-01-24T15:00:56.181Z,20.37
2019-01-24T15:03:25.516Z,20.23
2019-01-24T15:05:54.795Z,20.63
2019-01-24T15:08:24.185Z,22.33
2019-01-24T15:10:53.921Z,22.67
2019-01-24T15:13:23.442Z,20.73
2019-01-24T15:15:52.900Z,20.30
2019-01-24T15:18:22.334Z,21.07
2019-01-24T15:20:51.998Z,19.33
2019-01-24T15:23:21.442Z,20.20
2019-01-24T15:25:50.896Z,20.13
2019-01-24T15:28:20.198Z,21.17
2019-01-24T15:30:49.530Z,20.23
2019-01-24T15:33:18.950Z,20.50
2019-01-24T15:35:48.270Z,20.47
2019-01-24T15:38:17.818Z,20.93
2019-01-24T15:40:47.129Z,19.03
2019-01-24T15:43:16.539Z,19.03
2019-01-24T15:45:45.962Z,20.43
2019-01-24T15:48:15.270Z,21.30
2019-01-24T15:50:44.872Z,20.77
2019-01-24T15:53:14.337Z,20.53
2019-01-24T15:55:43.870Z,19.20
2019-01-24T15:58:13.180Z,19.70
2019-01-24T16:00:42.396Z,19.93
2019-01-24T16:03:11.700Z,20.00
2019-01-24T16:05:41.084Z,20.70
2019-01-24T16:08:11.262Z,21.13
2019-01-24T16:10:40.744Z,20.40
2019-01-24T16:13:10.107Z,20.43
2019-01-24T16:15:39.416Z,20.07
2019-01-24T16:18:10.555Z,20.50
2019-01-24T16:20:40.113Z,21.03
2019-01-24T16:23:09.388Z,20.77
2019-01-24T16:25:38.986Z,20.77
2019-01-24T16:28:08.884Z,21.40
2019-01-24T16:30:38.181Z,19.63
2019-01-24T16:33:08.405Z,20.67
2019-01-24T16:35:38.770Z,20.73
2019-01-24T16:38:09.533Z,19.10
2019-01-24T16:40:37.382Z,18.63
2019-01-24T16:43:06.749Z,19.87
2019-01-24T16:45:36.143Z,26.00
2019-01-24T16:48:06.160Z,22.97
2019-01-24T16:50:35.462Z,20.63
2019-01-24T16:53:04.768Z,20.23
2019-01-24T16:55:34.096Z,21.00
2019-01-24T16:58:03.380Z,20.47
2019-01-24T17:00:35.944Z,20.50
2019-01-24T17:03:08.396Z,19.63
2019-01-24T17:05:37.832Z,21.43
2019-01-24T17:08:07.874Z,21.73
2019-01-24T17:10:37.668Z,21.30
2019-01-24T17:13:08.213Z,21.60
2019-01-24T17:15:38.617Z,22.70
2019-01-24T17:18:08.250Z,20.10
2019-01-24T17:20:37.566Z,21.37
2019-01-24T17:23:07.467Z,22.43
2019-01-24T17:25:36.942Z,22.87
2019-01-24T17:28:07.292Z,20.27
2019-01-24T17:30:36.692Z,21.57
2019-01-24T17:33:07.378Z,23.90
2019-01-24T17:35:36.692Z,22.37
2019-01-24T17:38:06.490Z,20.87
2019-01-24T17:40:35.889Z,22.53
2019-01-24T17:43:07.766Z,24.83
2019-01-24T17:45:37.438Z,21.67
2019-01-24T17:48:06.890Z,21.37
2019-01-24T17:50:36.208Z,22.07
2019-01-24T17:53:05.731Z,21.50
2019-01-24T17:55:40.271Z,22.03
2019-01-24T17:58:10.906Z,21.67
2019-01-24T18:00:43.065Z,21.80
2019-01-24T18:03:12.466Z,21.57
2019-01-24T18:05:41.845Z,21.63
2019-01-24T18:08:11.230Z,23.10
2019-01-24T18:10:40.548Z,21.03
2019-01-24T18:13:09.826Z,21.87
2019-01-24T18:15:39.149Z,20.87
2019-01-24T18:18:10.597Z,21.67
2019-01-24T18:20:39.942Z,21.00
2019-01-24T18:23:09.279Z,21.20
2019-01-24T18:25:38.552Z,24.27
2019-01-24T18:28:09.384Z,23.33
2019-01-24T18:30:38.662Z,22.73
2019-01-24T18:33:10.923Z,24.40
2019-01-24T18:35:37.460Z,23.03
2019-01-24T18:38:07.572Z,21.10
2019-01-24T18:40:36.970Z,22.70
2019-01-24T18:43:10.258Z,22.30
2019-01-24T18:45:45.543Z,22.73
2019-01-24T18:48:14.829Z,22.50
2019-01-24T18:50:44.360Z,22.17
2019-01-24T18:53:13.673Z,21.90
2019-01-24T18:55:43.119Z,23.97
2019-01-24T18:58:12.486Z,25.00
2019-01-24T19:00:45.966Z,29.57
2019-01-24T19:03:15.595Z,23.97
2019-01-24T19:05:45.534Z,24.30
2019-01-24T19:08:15.069Z,23.93
2019-01-24T19:10:44.413Z,25.13
2019-01-24T19:13:13.766Z,25.80
2019-01-24T19:15:44.967Z,24.07
2019-01-24T19:18:14.722Z,24.87
2019-01-24T19:20:44.076Z,25.67
2019-01-24T19:23:13.379Z,26.50
2019-01-24T19:25:42.773Z,27.33
2019-01-24T19:28:14.305Z,26.40
2019-01-24T19:30:43.608Z,31.57
2019-01-24T19:33:12.990Z,36.23
2019-01-24T19:35:42.288Z,29.80
2019-01-24T19:38:11.691Z,27.27
2019-01-24T19:40:41.081Z,25.67
2019-01-24T19:43:10.505Z,25.43
2019-01-24T19:45:39.916Z,25.77
2019-01-24T19:48:09.240Z,25.20
2019-01-24T19:50:38.682Z,26.43
2019-01-24T19:53:08.441Z,28.13
2019-01-24T19:55:37.873Z,27.70
2019-01-24T19:58:07.714Z,24.13
2019-01-24T20:00:37.249Z,25.33
2019-01-24T20:03:07.102Z,26.00
2019-01-24T20:05:36.435Z,27.70
2019-01-24T20:08:05.984Z,26.63
2019-01-24T20:10:35.341Z,27.27
2019-01-24T20:13:05.091Z,25.97
2019-01-24T20:15:34.531Z,26.13
2019-01-24T20:18:03.914Z,25.73
2019-01-24T20:20:33.245Z,25.77
2019-01-24T20:23:02.705Z,26.40
2019-01-24T20:25:32.299Z,27.20
2019-01-24T20:28:04.571Z,25.07
2019-01-24T20:30:34.114Z,42.13
2019-01-24T20:33:03.456Z,41.17
2019-01-24T20:35:53.534Z,31.70
2019-01-24T20:38:23.352Z,27.53
2019-01-24T20:40:56.025Z,27.00
2019-01-24T20:43:25.387Z,25.93
2019-01-24T20:45:54.733Z,27.40
2019-01-24T20:48:24.057Z,26.60
2019-01-24T20:50:55.044Z,27.90
2019-01-24T20:53:22.875Z,25.70
2019-01-24T20:55:52.380Z,26.93
2019-01-24T20:58:21.671Z,26.17
2019-01-24T21:00:51.081Z,28.20
2019-01-24T21:03:20.411Z,28.17
2019-01-24T21:05:49.754Z,26.37
2019-01-24T21:08:19.055Z,28.33
2019-01-24T21:10:48.390Z,27.50
2019-01-24T21:13:17.747Z,27.40
2019-01-24T21:15:47.180Z,27.63
2019-01-24T21:18:16.477Z,27.63
2019-01-24T21:20:45.771Z,27.33
2019-01-24T21:23:15.117Z,28.87
2019-01-24T21:25:44.514Z,28.83
2019-01-24T21:28:13.857Z,28.97
2019-01-24T21:30:43.229Z,29.40
2019-01-24T21:33:12.537Z,29.37
2019-01-24T21:35:42.076Z,27.63
2019-01-24T21:38:11.411Z,30.70
2019-01-24T21:40:40.711Z,29.77
2019-01-24T21:43:10.049Z,28.63
2019-01-24T21:45:39.433Z,28.23
2019-01-24T21:48:08.873Z,29.70
2019-01-24T21:50:38.240Z,29.00
2019-01-24T21:53:07.640Z,29.80
2019-01-24T21:55:37.033Z,30.47
2019-01-24T21:58:07.467Z,29.77
2019-01-24T22:00:36.853Z,29.70
2019-01-24T22:03:06.189Z,30.77
2019-01-24T22:05:35.670Z,29.27
2019-01-24T22:08:05.219Z,29.80
2019-01-24T22:10:34.550Z,29.83
2019-01-24T22:13:03.903Z,29.37
2019-01-24T22:15:33.334Z,30.07
2019-01-24T22:18:02.756Z,29.53
2019-01-24T22:20:32.072Z,30.63
2019-01-24T22:23:01.415Z,34.23
2019-01-24T22:25:32.739Z,34.67
2019-01-24T22:28:02.039Z,32.37
2019-01-24T22:30:45.049Z,32.00
2019-01-24T22:33:14.365Z,30.83
2019-01-24T22:35:43.802Z,28.07
2019-01-24T22:38:13.142Z,29.77
2019-01-24T22:40:42.512Z,30.10
2019-01-24T22:43:11.873Z,30.67
2019-01-24T22:45:41.295Z,31.17
2019-01-24T22:48:10.688Z,30.20
2019-01-24T22:50:40.056Z,29.87
2019-01-24T22:53:09.493Z,29.50
2019-01-24T22:55:38.861Z,31.50
2019-01-24T22:58:08.198Z,36.17
2019-01-24T23:00:56.173Z,36.80
2019-01-24T23:03:40.627Z,33.57
2019-01-24T23:06:09.927Z,29.87
2019-01-24T23:08:39.215Z,32.40
2019-01-24T23:11:08.602Z,31.17
2019-01-24T23:13:38.037Z,29.50
2019-01-24T23:16:07.311Z,31.07
2019-01-24T23:18:36.645Z,32.57
2019-01-24T23:21:05.999Z,30.97
2019-01-24T23:23:35.271Z,32.30
2019-01-24T23:26:04.917Z,29.23
2019-01-24T23:28:34.232Z,36.57
2019-01-24T23:31:03.632Z,33.03
2019-01-24T23:33:33.064Z,31.63
2019-01-24T23:36:02.354Z,31.77
2019-01-24T23:38:31.660Z,31.83
2019-01-24T23:41:00.987Z,30.67
2019-01-24T23:43:30.464Z,31.67
2019-01-24T23:45:59.728Z,30.93
2019-01-24T23:48:29.055Z,30.63
2019-01-24T23:50:58.441Z,31.33
2019-01-24T23:53:27.877Z,31.37
2019-01-24T23:55:57.249Z,32.00
2019-01-24T23:58:26.551Z,30.80
